sensor_id;sensor_type;location;lat;lon;timestamp;temperature;humidity
4602;DHT22;2313;48.552;9.370;2022-09-21T00:01:15;7.00;99.90
4602;DHT22;2313;48.552;9.370;2022-09-21T00:03:42;7.10;99.90
4602;DHT22;2313;48.552;9.370;2022-09-21T00:06:17;7.10;99.90
4602;DHT22;2313;48.552;9.370;2022-09-21T00:08:44;7.20;99.90
4602;DHT22;2313;48.552;9.370;2022-09-21T00:11:22;7.30;99.90
4602;DHT22;2313;48.552;9.370;2022-09-21T00:13:52;7.30;99.90
4602;DHT22;2313;48.552;9.370;2022-09-21T00:16:18;7.30;99.90
4602;DHT22;2313;48.552;9.370;2022-09-21T00:18:44;7.40;99.90
4602;DHT22;2313;48.552;9.370;2022-09-21T00:21:12;7.40;99.90
4602;DHT22;2313;48.552;9.370;2022-09-21T00:23:39;7.40;99.90
4602;DHT22;2313;48.552;9.370;2022-09-21T00:26:09;7.50;99.90
4602;DHT22;2313;48.552;9.370;2022-09-21T00:28:36;7.50;99.90
4602;DHT22;2313;48.552;9.370;2022-09-21T00:31:06;7.60;99.90
4602;DHT22;2313;48.552;9.370;2022-09-21T00:33:33;7.60;99.90
4602;DHT22;2313;48.552;9.370;2022-09-21T00:36:06;7.70;99.90
4602;DHT22;2313;48.552;9.370;2022-09-21T00:38:33;7.70;99.90
4602;DHT22;2313;48.552;9.370;2022-09-21T00:40:59;7.70;99.90
4602;DHT22;2313;48.552;9.370;2022-09-21T00:43:25;7.70;99.90
4602;DHT22;2313;48.552;9.370;2022-09-21T00:45:58;7.70;99.90
4602;DHT22;2313;48.552;9.370;2022-09-21T00:48:26;7.60;99.90
4602;DHT22;2313;48.552;9.370;2022-09-21T00:50:53;7.50;99.90
4602;DHT22;2313;48.552;9.370;2022-09-21T00:53:21;7.40;99.90
4602;DHT22;2313;48.552;9.370;2022-09-21T00:55:51;7.30;99.90
4602;DHT22;2313;48.552;9.370;2022-09-21T00:58:23;7.20;99.90
4602;DHT22;2313;48.552;9.370;2022-09-21T01:00:52;7.20;99.90
4602;DHT22;2313;48.552;9.370;2022-09-21T01:03:17;7.10;99.90
4602;DHT22;2313;48.552;9.370;2022-09-21T01:05:43;7.00;99.90
4602;DHT22;2313;48.552;9.370;2022-09-21T01:08:10;6.90;99.90
4602;DHT22;2313;48.552;9.370;2022-09-21T01:14:08;6.80;99.90
4602;DHT22;2313;48.552;9.370;2022-09-21T01:16:44;6.80;99.90
4602;DHT22;2313;48.552;9.370;2022-09-21T01:19:43;6.60;99.90
4602;DHT22;2313;48.552;9.370;2022-09-21T01:27:44;6.30;99.90
4602;DHT22;2313;48.552;9.370;2022-09-21T01:30:18;6.30;99.90
4602;DHT22;2313;48.552;9.370;2022-09-21T01:32:54;6.00;99.90
4602;DHT22;2313;48.552;9.370;2022-09-21T01:35:25;5.80;99.90
4602;DHT22;2313;48.552;9.370;2022-09-21T01:37:56;5.70;99.90
4602;DHT22;2313;48.552;9.370;2022-09-21T01:40:29;5.60;99.90
4602;DHT22;2313;48.552;9.370;2022-09-21T01:42:56;5.70;99.90
4602;DHT22;2313;48.552;9.370;2022-09-21T01:45:32;5.80;99.90
4602;DHT22;2313;48.552;9.370;2022-09-21T01:48:00;5.80;99.90
4602;DHT22;2313;48.552;9.370;2022-09-21T01:50:33;5.60;99.90
4602;DHT22;2313;48.552;9.370;2022-09-21T01:53:32;5.70;99.90
4602;DHT22;2313;48.552;9.370;2022-09-21T01:56:14;5.70;99.90
4602;DHT22;2313;48.552;9.370;2022-09-21T02:01:54;5.70;99.90
4602;DHT22;2313;48.552;9.370;2022-09-21T02:04:20;5.60;99.90
4602;DHT22;2313;48.552;9.370;2022-09-21T02:06:47;5.50;99.90
4602;DHT22;2313;48.552;9.370;2022-09-21T02:09:14;5.40;99.90
4602;DHT22;2313;48.552;9.370;2022-09-21T02:11:41;5.40;99.90
4602;DHT22;2313;48.552;9.370;2022-09-21T02:14:15;5.40;99.90
4602;DHT22;2313;48.552;9.370;2022-09-21T02:17:00;5.50;99.90
4602;DHT22;2313;48.552;9.370;2022-09-21T02:19:37;5.60;99.90
4602;DHT22;2313;48.552;9.370;2022-09-21T02:24:44;5.50;99.90
4602;DHT22;2313;48.552;9.370;2022-09-21T02:30:12;5.60;99.90
4602;DHT22;2313;48.552;9.370;2022-09-21T02:38:18;5.70;99.90
4602;DHT22;2313;48.552;9.370;2022-09-21T02:40:50;5.70;99.90
4602;DHT22;2313;48.552;9.370;2022-09-21T02:45:58;5.70;99.90
4602;DHT22;2313;48.552;9.370;2022-09-21T02:48:30;5.70;99.90
4602;DHT22;2313;48.552;9.370;2022-09-21T02:51:03;5.80;99.90
4602;DHT22;2313;48.552;9.370;2022-09-21T02:53:33;5.70;99.90
4602;DHT22;2313;48.552;9.370;2022-09-21T02:56:01;5.50;99.90
4602;DHT22;2313;48.552;9.370;2022-09-21T02:58:38;5.40;99.90
4602;DHT22;2313;48.552;9.370;2022-09-21T03:01:08;5.40;99.90
4602;DHT22;2313;48.552;9.370;2022-09-21T03:03:34;5.40;99.90
4602;DHT22;2313;48.552;9.370;2022-09-21T03:06:00;5.40;99.90
4602;DHT22;2313;48.552;9.370;2022-09-21T03:08:26;5.50;99.90
4602;DHT22;2313;48.552;9.370;2022-09-21T03:10:52;5.50;99.90
4602;DHT22;2313;48.552;9.370;2022-09-21T03:13:18;5.50;99.90
4602;DHT22;2313;48.552;9.370;2022-09-21T03:15:45;5.50;99.90
4602;DHT22;2313;48.552;9.370;2022-09-21T03:18:11;5.50;99.90
4602;DHT22;2313;48.552;9.370;2022-09-21T03:20:39;5.50;99.90
4602;DHT22;2313;48.552;9.370;2022-09-21T03:23:05;5.50;99.90
4602;DHT22;2313;48.552;9.370;2022-09-21T03:25:31;5.40;99.90
4602;DHT22;2313;48.552;9.370;2022-09-21T03:27:58;5.40;99.90
4602;DHT22;2313;48.552;9.370;2022-09-21T03:30:24;5.40;99.90
4602;DHT22;2313;48.552;9.370;2022-09-21T03:32:51;5.40;99.90
4602;DHT22;2313;48.552;9.370;2022-09-21T03:35:18;5.30;99.90
4602;DHT22;2313;48.552;9.370;2022-09-21T03:37:44;5.30;99.90
4602;DHT22;2313;48.552;9.370;2022-09-21T03:40:13;5.30;99.90
4602;DHT22;2313;48.552;9.370;2022-09-21T03:42:40;5.30;99.90
4602;DHT22;2313;48.552;9.370;2022-09-21T03:45:07;5.30;99.90
4602;DHT22;2313;48.552;9.370;2022-09-21T03:47:33;5.20;99.90
4602;DHT22;2313;48.552;9.370;2022-09-21T03:49:59;5.20;99.90
4602;DHT22;2313;48.552;9.370;2022-09-21T03:52:25;5.30;99.90
4602;DHT22;2313;48.552;9.370;2022-09-21T03:54:51;5.30;99.90
4602;DHT22;2313;48.552;9.370;2022-09-21T03:57:16;5.30;99.90
4602;DHT22;2313;48.552;9.370;2022-09-21T03:59:42;5.30;99.90
4602;DHT22;2313;48.552;9.370;2022-09-21T04:02:08;5.20;99.90
4602;DHT22;2313;48.552;9.370;2022-09-21T04:04:33;5.20;99.90
4602;DHT22;2313;48.552;9.370;2022-09-21T04:06:59;5.20;99.90
4602;DHT22;2313;48.552;9.370;2022-09-21T04:09:25;5.20;99.90
4602;DHT22;2313;48.552;9.370;2022-09-21T04:11:50;5.10;99.90
4602;DHT22;2313;48.552;9.370;2022-09-21T04:14:18;5.10;99.90
4602;DHT22;2313;48.552;9.370;2022-09-21T04:16:44;5.10;99.90
4602;DHT22;2313;48.552;9.370;2022-09-21T04:19:10;5.10;99.90
4602;DHT22;2313;48.552;9.370;2022-09-21T04:21:35;5.10;99.90
4602;DHT22;2313;48.552;9.370;2022-09-21T04:24:01;5.10;99.90
4602;DHT22;2313;48.552;9.370;2022-09-21T04:26:30;5.00;99.90
4602;DHT22;2313;48.552;9.370;2022-09-21T04:28:56;5.00;99.90
4602;DHT22;2313;48.552;9.370;2022-09-21T04:31:24;5.00;99.90
4602;DHT22;2313;48.552;9.370;2022-09-21T04:33:51;4.90;99.90
4602;DHT22;2313;48.552;9.370;2022-09-21T04:36:17;4.90;99.90
4602;DHT22;2313;48.552;9.370;2022-09-21T04:38:43;4.90;99.90
4602;DHT22;2313;48.552;9.370;2022-09-21T04:41:09;4.80;99.90
4602;DHT22;2313;48.552;9.370;2022-09-21T04:43:35;4.70;99.90
4602;DHT22;2313;48.552;9.370;2022-09-21T04:46:05;4.80;99.90
4602;DHT22;2313;48.552;9.370;2022-09-21T04:48:31;4.80;99.90
4602;DHT22;2313;48.552;9.370;2022-09-21T04:50:56;4.90;99.90
4602;DHT22;2313;48.552;9.370;2022-09-21T04:53:22;4.90;99.90
4602;DHT22;2313;48.552;9.370;2022-09-21T04:55:48;4.90;99.90
4602;DHT22;2313;48.552;9.370;2022-09-21T04:58:13;4.90;99.90
4602;DHT22;2313;48.552;9.370;2022-09-21T05:00:39;5.00;99.90
4602;DHT22;2313;48.552;9.370;2022-09-21T05:03:05;4.90;99.90
4602;DHT22;2313;48.552;9.370;2022-09-21T05:05:30;4.90;99.90
4602;DHT22;2313;48.552;9.370;2022-09-21T05:07:56;4.90;99.90
4602;DHT22;2313;48.552;9.370;2022-09-21T05:10:22;4.90;99.90
4602;DHT22;2313;48.552;9.370;2022-09-21T05:12:47;4.90;99.90
4602;DHT22;2313;48.552;9.370;2022-09-21T05:15:13;4.90;99.90
4602;DHT22;2313;48.552;9.370;2022-09-21T05:17:39;4.90;99.90
4602;DHT22;2313;48.552;9.370;2022-09-21T05:20:05;4.90;99.90
4602;DHT22;2313;48.552;9.370;2022-09-21T05:22:31;4.80;99.90
4602;DHT22;2313;48.552;9.370;2022-09-21T05:24:57;4.80;99.90
4602;DHT22;2313;48.552;9.370;2022-09-21T05:27:22;4.80;99.90
4602;DHT22;2313;48.552;9.370;2022-09-21T05:29:48;4.80;99.90
4602;DHT22;2313;48.552;9.370;2022-09-21T05:35:00;4.90;99.90
4602;DHT22;2313;48.552;9.370;2022-09-21T05:37:46;4.90;99.90
4602;DHT22;2313;48.552;9.370;2022-09-21T05:40:13;4.90;99.90
4602;DHT22;2313;48.552;9.370;2022-09-21T05:42:39;4.90;99.90
4602;DHT22;2313;48.552;9.370;2022-09-21T05:45:06;4.90;99.90
4602;DHT22;2313;48.552;9.370;2022-09-21T05:48:07;4.90;99.90
4602;DHT22;2313;48.552;9.370;2022-09-21T05:51:01;4.90;99.90
4602;DHT22;2313;48.552;9.370;2022-09-21T06:04:46;6.20;99.90
4602;DHT22;2313;48.552;9.370;2022-09-21T06:07:12;7.00;99.90
4602;DHT22;2313;48.552;9.370;2022-09-21T06:09:37;7.60;99.90
4602;DHT22;2313;48.552;9.370;2022-09-21T06:12:03;8.10;99.90
4602;DHT22;2313;48.552;9.370;2022-09-21T06:14:29;8.40;99.90
4602;DHT22;2313;48.552;9.370;2022-09-21T06:16:54;8.70;99.90
4602;DHT22;2313;48.552;9.370;2022-09-21T06:19:20;8.80;99.90
4602;DHT22;2313;48.552;9.370;2022-09-21T06:21:46;8.70;99.90
4602;DHT22;2313;48.552;9.370;2022-09-21T06:24:11;8.70;99.90
4602;DHT22;2313;48.552;9.370;2022-09-21T06:26:37;8.60;99.90
4602;DHT22;2313;48.552;9.370;2022-09-21T06:29:03;8.30;99.90
4602;DHT22;2313;48.552;9.370;2022-09-21T06:31:28;8.20;99.90
4602;DHT22;2313;48.552;9.370;2022-09-21T06:33:54;8.00;99.90
4602;DHT22;2313;48.552;9.370;2022-09-21T06:36:20;7.80;99.90
4602;DHT22;2313;48.552;9.370;2022-09-21T06:38:45;7.80;99.90
4602;DHT22;2313;48.552;9.370;2022-09-21T06:41:11;7.60;99.90
4602;DHT22;2313;48.552;9.370;2022-09-21T06:43:37;7.60;99.90
4602;DHT22;2313;48.552;9.370;2022-09-21T06:46:03;7.60;99.90
4602;DHT22;2313;48.552;9.370;2022-09-21T06:48:29;7.50;99.90
4602;DHT22;2313;48.552;9.370;2022-09-21T06:51:00;7.60;99.90
4602;DHT22;2313;48.552;9.370;2022-09-21T06:53:26;7.60;99.90
4602;DHT22;2313;48.552;9.370;2022-09-21T06:55:52;7.60;99.90
4602;DHT22;2313;48.552;9.370;2022-09-21T06:58:18;7.60;99.90
4602;DHT22;2313;48.552;9.370;2022-09-21T07:00:44;7.70;99.90
4602;DHT22;2313;48.552;9.370;2022-09-21T07:03:11;7.60;99.90
4602;DHT22;2313;48.552;9.370;2022-09-21T07:05:38;7.60;99.90
4602;DHT22;2313;48.552;9.370;2022-09-21T07:08:04;7.80;99.90
4602;DHT22;2313;48.552;9.370;2022-09-21T07:10:30;7.80;99.90
4602;DHT22;2313;48.552;9.370;2022-09-21T07:13:02;7.90;99.90
4602;DHT22;2313;48.552;9.370;2022-09-21T07:15:28;8.00;99.90
4602;DHT22;2313;48.552;9.370;2022-09-21T07:17:55;7.90;99.90
4602;DHT22;2313;48.552;9.370;2022-09-21T07:20:21;8.00;99.90
4602;DHT22;2313;48.552;9.370;2022-09-21T07:22:46;8.10;99.90
4602;DHT22;2313;48.552;9.370;2022-09-21T07:25:12;8.10;99.90
4602;DHT22;2313;48.552;9.370;2022-09-21T07:27:38;8.10;99.90
4602;DHT22;2313;48.552;9.370;2022-09-21T07:30:05;8.20;99.90
4602;DHT22;2313;48.552;9.370;2022-09-21T07:32:31;8.30;99.90
4602;DHT22;2313;48.552;9.370;2022-09-21T07:34:57;8.40;99.90
4602;DHT22;2313;48.552;9.370;2022-09-21T07:37:23;8.50;99.90
4602;DHT22;2313;48.552;9.370;2022-09-21T07:39:50;8.60;99.90
4602;DHT22;2313;48.552;9.370;2022-09-21T07:42:17;8.60;99.90
4602;DHT22;2313;48.552;9.370;2022-09-21T07:44:47;8.80;99.90
4602;DHT22;2313;48.552;9.370;2022-09-21T07:47:14;8.90;99.90
4602;DHT22;2313;48.552;9.370;2022-09-21T07:49:40;9.00;99.90
4602;DHT22;2313;48.552;9.370;2022-09-21T07:52:07;9.10;99.90
4602;DHT22;2313;48.552;9.370;2022-09-21T07:54:34;9.20;99.90
4602;DHT22;2313;48.552;9.370;2022-09-21T07:56:59;9.30;99.90
4602;DHT22;2313;48.552;9.370;2022-09-21T07:59:44;9.40;99.90
4602;DHT22;2313;48.552;9.370;2022-09-21T08:02:10;9.60;99.90
4602;DHT22;2313;48.552;9.370;2022-09-21T08:04:36;9.70;99.90
4602;DHT22;2313;48.552;9.370;2022-09-21T08:07:02;9.80;99.90
4602;DHT22;2313;48.552;9.370;2022-09-21T08:09:27;10.00;99.90
4602;DHT22;2313;48.552;9.370;2022-09-21T08:11:53;10.10;99.90
4602;DHT22;2313;48.552;9.370;2022-09-21T08:14:19;10.20;99.90
4602;DHT22;2313;48.552;9.370;2022-09-21T08:16:47;10.30;99.90
4602;DHT22;2313;48.552;9.370;2022-09-21T08:19:13;10.50;99.90
4602;DHT22;2313;48.552;9.370;2022-09-21T08:21:40;10.60;99.90
4602;DHT22;2313;48.552;9.370;2022-09-21T08:24:06;10.70;99.90
4602;DHT22;2313;48.552;9.370;2022-09-21T08:26:32;10.80;99.90
4602;DHT22;2313;48.552;9.370;2022-09-21T08:28:57;11.00;99.90
4602;DHT22;2313;48.552;9.370;2022-09-21T08:31:23;11.10;99.90
4602;DHT22;2313;48.552;9.370;2022-09-21T08:33:50;11.20;99.90
4602;DHT22;2313;48.552;9.370;2022-09-21T08:36:17;11.40;99.90
4602;DHT22;2313;48.552;9.370;2022-09-21T08:38:43;11.50;99.90
4602;DHT22;2313;48.552;9.370;2022-09-21T08:41:25;11.60;99.90
4602;DHT22;2313;48.552;9.370;2022-09-21T08:44:09;11.80;99.90
4602;DHT22;2313;48.552;9.370;2022-09-21T08:46:36;12.00;99.90
4602;DHT22;2313;48.552;9.370;2022-09-21T08:49:06;12.10;99.90
4602;DHT22;2313;48.552;9.370;2022-09-21T08:51:37;12.20;99.90
4602;DHT22;2313;48.552;9.370;2022-09-21T08:54:13;12.40;99.90
4602;DHT22;2313;48.552;9.370;2022-09-21T08:56:39;12.60;99.90
4602;DHT22;2313;48.552;9.370;2022-09-21T08:59:11;12.70;99.90
4602;DHT22;2313;48.552;9.370;2022-09-21T09:01:52;13.10;99.90
4602;DHT22;2313;48.552;9.370;2022-09-21T09:08:17;13.60;99.90
4602;DHT22;2313;48.552;9.370;2022-09-21T09:10:31;14.10;99.90
4602;DHT22;2313;48.552;9.370;2022-09-21T09:19:04;15.10;99.90
4602;DHT22;2313;48.552;9.370;2022-09-21T09:21:36;15.60;99.90
4602;DHT22;2313;48.552;9.370;2022-09-21T09:24:10;15.60;99.90
4602;DHT22;2313;48.552;9.370;2022-09-21T09:26:45;15.40;99.90
4602;DHT22;2313;48.552;9.370;2022-09-21T09:31:38;15.90;99.90
4602;DHT22;2313;48.552;9.370;2022-09-21T09:36:46;16.90;99.90
4602;DHT22;2313;48.552;9.370;2022-09-21T09:39:15;17.50;99.90
4602;DHT22;2313;48.552;9.370;2022-09-21T09:44:35;17.60;99.90
4602;DHT22;2313;48.552;9.370;2022-09-21T09:52:18;17.20;99.90
4602;DHT22;2313;48.552;9.370;2022-09-21T09:54:44;16.60;99.90
4602;DHT22;2313;48.552;9.370;2022-09-21T09:57:10;16.50;99.90
4602;DHT22;2313;48.552;9.370;2022-09-21T09:59:42;16.20;99.90
4602;DHT22;2313;48.552;9.370;2022-09-21T10:02:23;16.50;99.90
4602;DHT22;2313;48.552;9.370;2022-09-21T10:05:00;16.50;99.90
4602;DHT22;2313;48.552;9.370;2022-09-21T10:07:38;16.30;99.90
4602;DHT22;2313;48.552;9.370;2022-09-21T10:13:11;15.70;99.90
4602;DHT22;2313;48.552;9.370;2022-09-21T10:15:41;15.60;99.90
4602;DHT22;2313;48.552;9.370;2022-09-21T10:18:43;15.70;99.90
4602;DHT22;2313;48.552;9.370;2022-09-21T10:21:22;15.60;99.90
4602;DHT22;2313;48.552;9.370;2022-09-21T10:23:57;15.60;99.90
4602;DHT22;2313;48.552;9.370;2022-09-21T10:26:48;15.60;99.90
4602;DHT22;2313;48.552;9.370;2022-09-21T10:29:28;15.90;99.90
4602;DHT22;2313;48.552;9.370;2022-09-21T10:32:04;15.90;99.90
4602;DHT22;2313;48.552;9.370;2022-09-21T10:34:33;16.10;99.90
4602;DHT22;2313;48.552;9.370;2022-09-21T10:37:01;16.30;99.90
4602;DHT22;2313;48.552;9.370;2022-09-21T10:39:31;16.30;99.90
4602;DHT22;2313;48.552;9.370;2022-09-21T10:42:09;16.20;98.60
4602;DHT22;2313;48.552;9.370;2022-09-21T10:44:41;16.30;97.60
4602;DHT22;2313;48.552;9.370;2022-09-21T10:49:57;16.30;98.90
4602;DHT22;2313;48.552;9.370;2022-09-21T10:52:38;16.70;99.90
4602;DHT22;2313;48.552;9.370;2022-09-21T10:55:14;17.30;96.40
4602;DHT22;2313;48.552;9.370;2022-09-21T10:57:41;17.20;92.80
4602;DHT22;2313;48.552;9.370;2022-09-21T11:02:48;18.30;91.60
4602;DHT22;2313;48.552;9.370;2022-09-21T11:05:19;18.40;90.10
4602;DHT22;2313;48.552;9.370;2022-09-21T11:10:48;18.30;90.30
4602;DHT22;2313;48.552;9.370;2022-09-21T11:16:12;17.90;90.50
4602;DHT22;2313;48.552;9.370;2022-09-21T11:18:53;18.10;88.80
4602;DHT22;2313;48.552;9.370;2022-09-21T11:27:24;19.70;82.40
4602;DHT22;2313;48.552;9.370;2022-09-21T11:30:13;19.40;82.40
4602;DHT22;2313;48.552;9.370;2022-09-21T12:00:17;17.90;81.60
4602;DHT22;2313;48.552;9.370;2022-09-21T12:06:10;17.10;85.50
4602;DHT22;2313;48.552;9.370;2022-09-21T12:14:28;18.40;84.90
4602;DHT22;2313;48.552;9.370;2022-09-21T12:22:33;19.80;76.80
4602;DHT22;2313;48.552;9.370;2022-09-21T12:25:20;20.10;76.70
4602;DHT22;2313;48.552;9.370;2022-09-21T12:27:50;20.10;74.10
4602;DHT22;2313;48.552;9.370;2022-09-21T12:30:20;19.80;76.40
4602;DHT22;2313;48.552;9.370;2022-09-21T12:35:36;18.60;77.80
4602;DHT22;2313;48.552;9.370;2022-09-21T12:38:23;18.00;79.70
4602;DHT22;2313;48.552;9.370;2022-09-21T12:40:53;18.40;80.30
4602;DHT22;2313;48.552;9.370;2022-09-21T12:46:09;18.50;75.60
4602;DHT22;2313;48.552;9.370;2022-09-21T12:48:38;18.00;77.80
4602;DHT22;2313;48.552;9.370;2022-09-21T12:51:23;17.80;81.40
4602;DHT22;2313;48.552;9.370;2022-09-21T12:53:52;17.60;78.70
4602;DHT22;2313;48.552;9.370;2022-09-21T12:56:33;18.10;79.70
4602;DHT22;2313;48.552;9.370;2022-09-21T12:59:43;18.40;77.60
4602;DHT22;2313;48.552;9.370;2022-09-21T13:02:30;18.10;77.00
4602;DHT22;2313;48.552;9.370;2022-09-21T13:08:12;18.60;78.20
4602;DHT22;2313;48.552;9.370;2022-09-21T13:10:42;19.00;76.60
4602;DHT22;2313;48.552;9.370;2022-09-21T13:13:28;19.30;77.40
4602;DHT22;2313;48.552;9.370;2022-09-21T13:15:56;19.50;77.90
4602;DHT22;2313;48.552;9.370;2022-09-21T13:18:35;19.70;75.00
4602;DHT22;2313;48.552;9.370;2022-09-21T13:21:19;19.70;74.80
4602;DHT22;2313;48.552;9.370;2022-09-21T13:24:02;19.70;75.00
4602;DHT22;2313;48.552;9.370;2022-09-21T13:26:33;19.90;75.00
4602;DHT22;2313;48.552;9.370;2022-09-21T13:31:57;18.80;71.60
4602;DHT22;2313;48.552;9.370;2022-09-21T13:34:42;18.30;73.20
4602;DHT22;2313;48.552;9.370;2022-09-21T13:39:55;17.70;77.00
4602;DHT22;2313;48.552;9.370;2022-09-21T13:47:53;17.00;77.60
4602;DHT22;2313;48.552;9.370;2022-09-21T13:50:38;16.80;79.70
4602;DHT22;2313;48.552;9.370;2022-09-21T13:53:19;16.90;80.30
4602;DHT22;2313;48.552;9.370;2022-09-21T13:55:51;17.30;78.10
4602;DHT22;2313;48.552;9.370;2022-09-21T13:58:25;17.60;74.50
4602;DHT22;2313;48.552;9.370;2022-09-21T14:01:03;17.90;74.10
4602;DHT22;2313;48.552;9.370;2022-09-21T14:03:36;18.00;75.10
4602;DHT22;2313;48.552;9.370;2022-09-21T14:06:08;17.70;76.10
4602;DHT22;2313;48.552;9.370;2022-09-21T14:09:04;17.70;80.00
4602;DHT22;2313;48.552;9.370;2022-09-21T14:11:35;17.50;77.90
4602;DHT22;2313;48.552;9.370;2022-09-21T14:27:05;16.30;75.30
4602;DHT22;2313;48.552;9.370;2022-09-21T14:29:49;16.20;74.40
4602;DHT22;2313;48.552;9.370;2022-09-21T14:32:22;16.00;74.90
4602;DHT22;2313;48.552;9.370;2022-09-21T14:35:04;15.80;75.60
4602;DHT22;2313;48.552;9.370;2022-09-21T14:37:41;15.60;78.00
4602;DHT22;2313;48.552;9.370;2022-09-21T14:40:21;15.60;78.70
4602;DHT22;2313;48.552;9.370;2022-09-21T14:42:49;15.80;79.00
4602;DHT22;2313;48.552;9.370;2022-09-21T14:45:17;15.70;75.40
4602;DHT22;2313;48.552;9.370;2022-09-21T14:47:57;15.80;76.80
4602;DHT22;2313;48.552;9.370;2022-09-21T15:06:47;16.30;78.80
4602;DHT22;2313;48.552;9.370;2022-09-21T15:12:59;16.50;78.70
4602;DHT22;2313;48.552;9.370;2022-09-21T15:15:41;16.60;79.20
4602;DHT22;2313;48.552;9.370;2022-09-21T15:18:18;16.60;81.60
4602;DHT22;2313;48.552;9.370;2022-09-21T15:21:02;16.60;81.10
4602;DHT22;2313;48.552;9.370;2022-09-21T15:23:33;16.60;80.70
4602;DHT22;2313;48.552;9.370;2022-09-21T15:26:06;16.50;77.40
4602;DHT22;2313;48.552;9.370;2022-09-21T15:28:44;16.40;79.80
4602;DHT22;2313;48.552;9.370;2022-09-21T15:31:13;16.20;81.00
4602;DHT22;2313;48.552;9.370;2022-09-21T15:33:40;16.10;82.70
4602;DHT22;2313;48.552;9.370;2022-09-21T15:36:07;15.90;80.80
4602;DHT22;2313;48.552;9.370;2022-09-21T15:38:34;15.70;82.00
4602;DHT22;2313;48.552;9.370;2022-09-21T15:41:01;15.50;81.20
4602;DHT22;2313;48.552;9.370;2022-09-21T15:43:27;15.50;83.20
4602;DHT22;2313;48.552;9.370;2022-09-21T15:46:00;15.40;77.50
4602;DHT22;2313;48.552;9.370;2022-09-21T15:48:32;15.40;80.10
4602;DHT22;2313;48.552;9.370;2022-09-21T15:51:29;15.40;78.00
4602;DHT22;2313;48.552;9.370;2022-09-21T15:56:35;15.40;80.80
4602;DHT22;2313;48.552;9.370;2022-09-21T15:59:06;15.30;79.90
4602;DHT22;2313;48.552;9.370;2022-09-21T16:01:44;15.30;81.30
4602;DHT22;2313;48.552;9.370;2022-09-21T16:04:14;15.30;82.10
4602;DHT22;2313;48.552;9.370;2022-09-21T16:06:45;15.20;83.70
4602;DHT22;2313;48.552;9.370;2022-09-21T16:11:49;15.30;82.30
4602;DHT22;2313;48.552;9.370;2022-09-21T16:14:17;15.10;81.50
4602;DHT22;2313;48.552;9.370;2022-09-21T16:24:59;14.90;85.90
4602;DHT22;2313;48.552;9.370;2022-09-21T16:27:27;14.80;90.00
4602;DHT22;2313;48.552;9.370;2022-09-21T16:29:55;14.70;90.80
4602;DHT22;2313;48.552;9.370;2022-09-21T16:32:34;14.70;90.30
4602;DHT22;2313;48.552;9.370;2022-09-21T16:35:22;14.70;87.00
4602;DHT22;2313;48.552;9.370;2022-09-21T16:37:51;14.60;87.10
4602;DHT22;2313;48.552;9.370;2022-09-21T16:40:17;14.50;87.20
4602;DHT22;2313;48.552;9.370;2022-09-21T16:42:43;14.40;89.40
4602;DHT22;2313;48.552;9.370;2022-09-21T16:45:20;14.30;86.10
4602;DHT22;2313;48.552;9.370;2022-09-21T16:47:53;14.30;86.30
4602;DHT22;2313;48.552;9.370;2022-09-21T16:50:22;14.20;83.10
4602;DHT22;2313;48.552;9.370;2022-09-21T16:52:48;14.20;85.90
4602;DHT22;2313;48.552;9.370;2022-09-21T16:55:18;14.10;88.80
4602;DHT22;2313;48.552;9.370;2022-09-21T16:57:44;13.80;89.70
4602;DHT22;2313;48.552;9.370;2022-09-21T17:00:15;13.60;91.10
4602;DHT22;2313;48.552;9.370;2022-09-21T17:02:45;13.50;91.40
4602;DHT22;2313;48.552;9.370;2022-09-21T17:05:11;13.60;91.40
4602;DHT22;2313;48.552;9.370;2022-09-21T17:07:53;13.50;91.20
4602;DHT22;2313;48.552;9.370;2022-09-21T17:10:21;13.50;90.20
4602;DHT22;2313;48.552;9.370;2022-09-21T17:12:51;13.30;90.90
4602;DHT22;2313;48.552;9.370;2022-09-21T17:15:18;13.10;92.80
4602;DHT22;2313;48.552;9.370;2022-09-21T17:17:44;13.10;91.60
4602;DHT22;2313;48.552;9.370;2022-09-21T17:20:32;13.10;93.40
4602;DHT22;2313;48.552;9.370;2022-09-21T17:22:58;12.90;92.10
4602;DHT22;2313;48.552;9.370;2022-09-21T17:25:26;12.80;94.80
4602;DHT22;2313;48.552;9.370;2022-09-21T17:27:52;12.60;94.40
4602;DHT22;2313;48.552;9.370;2022-09-21T17:30:18;12.40;95.60
4602;DHT22;2313;48.552;9.370;2022-09-21T17:32:44;12.40;97.40
4602;DHT22;2313;48.552;9.370;2022-09-21T17:35:36;12.10;97.30
4602;DHT22;2313;48.552;9.370;2022-09-21T17:38:03;11.90;99.90
4602;DHT22;2313;48.552;9.370;2022-09-21T17:40:29;11.60;99.90
4602;DHT22;2313;48.552;9.370;2022-09-21T17:45:47;11.30;99.90
4602;DHT22;2313;48.552;9.370;2022-09-21T17:48:19;11.20;99.90
4602;DHT22;2313;48.552;9.370;2022-09-21T17:50:47;10.90;99.90
4602;DHT22;2313;48.552;9.370;2022-09-21T17:53:13;11.00;99.90
4602;DHT22;2313;48.552;9.370;2022-09-21T17:55:58;10.80;99.90
4602;DHT22;2313;48.552;9.370;2022-09-21T18:01:06;10.40;99.90
4602;DHT22;2313;48.552;9.370;2022-09-21T18:03:33;10.50;99.90
4602;DHT22;2313;48.552;9.370;2022-09-21T18:06:08;10.40;99.90
4602;DHT22;2313;48.552;9.370;2022-09-21T18:08:35;10.30;99.90
4602;DHT22;2313;48.552;9.370;2022-09-21T18:24:42;9.50;99.90
4602;DHT22;2313;48.552;9.370;2022-09-21T18:27:09;9.50;99.90
4602;DHT22;2313;48.552;9.370;2022-09-21T18:29:36;9.50;99.90
4602;DHT22;2313;48.552;9.370;2022-09-21T18:35:17;9.40;99.90
4602;DHT22;2313;48.552;9.370;2022-09-21T18:46:52;9.20;99.90
4602;DHT22;2313;48.552;9.370;2022-09-21T18:49:47;9.00;99.90
4602;DHT22;2313;48.552;9.370;2022-09-21T18:52:17;8.90;99.90
4602;DHT22;2313;48.552;9.370;2022-09-21T18:54:44;8.90;99.90
4602;DHT22;2313;48.552;9.370;2022-09-21T18:57:11;8.80;99.90
4602;DHT22;2313;48.552;9.370;2022-09-21T18:59:37;8.80;99.90
4602;DHT22;2313;48.552;9.370;2022-09-21T19:02:13;8.80;99.90
4602;DHT22;2313;48.552;9.370;2022-09-21T19:04:45;8.70;99.90
4602;DHT22;2313;48.552;9.370;2022-09-21T19:12:48;8.80;99.90
4602;DHT22;2313;48.552;9.370;2022-09-21T19:26:40;8.70;99.90
4602;DHT22;2313;48.552;9.370;2022-09-21T19:31:54;8.50;99.90
4602;DHT22;2313;48.552;9.370;2022-09-21T19:34:23;8.50;99.90
4602;DHT22;2313;48.552;9.370;2022-09-21T19:36:48;8.50;99.90
4602;DHT22;2313;48.552;9.370;2022-09-21T19:39:15;8.50;99.90
4602;DHT22;2313;48.552;9.370;2022-09-21T19:41:44;8.50;99.90
4602;DHT22;2313;48.552;9.370;2022-09-21T19:49:52;8.40;99.90
4602;DHT22;2313;48.552;9.370;2022-09-21T19:52:30;8.50;99.90
4602;DHT22;2313;48.552;9.370;2022-09-21T19:55:01;8.40;99.90
4602;DHT22;2313;48.552;9.370;2022-09-21T19:57:46;8.40;99.90
4602;DHT22;2313;48.552;9.370;2022-09-21T20:00:31;8.50;99.90
4602;DHT22;2313;48.552;9.370;2022-09-21T20:03:05;8.50;99.90
4602;DHT22;2313;48.552;9.370;2022-09-21T20:05:56;8.50;99.90
4602;DHT22;2313;48.552;9.370;2022-09-21T20:08:26;8.30;99.90
4602;DHT22;2313;48.552;9.370;2022-09-21T20:21:41;8.30;99.90
4602;DHT22;2313;48.552;9.370;2022-09-21T20:26:49;8.30;99.90
4602;DHT22;2313;48.552;9.370;2022-09-21T20:29:16;8.30;99.90
4602;DHT22;2313;48.552;9.370;2022-09-21T20:31:42;8.30;99.90
4602;DHT22;2313;48.552;9.370;2022-09-21T20:34:09;8.30;99.90
4602;DHT22;2313;48.552;9.370;2022-09-21T20:36:35;8.30;99.90
4602;DHT22;2313;48.552;9.370;2022-09-21T20:39:01;8.20;99.90
4602;DHT22;2313;48.552;9.370;2022-09-21T20:41:27;8.30;99.90
4602;DHT22;2313;48.552;9.370;2022-09-21T20:43:53;8.20;99.90
4602;DHT22;2313;48.552;9.370;2022-09-21T20:46:18;8.30;99.90
4602;DHT22;2313;48.552;9.370;2022-09-21T20:48:44;8.30;99.90
4602;DHT22;2313;48.552;9.370;2022-09-21T20:51:10;8.30;99.90
4602;DHT22;2313;48.552;9.370;2022-09-21T20:53:36;8.20;99.90